Big Bear Station Historical Data
Daily Summary for July 5, 2017 Units:  English    Metric   Both
Next Day »
Daily Weekly Monthly Yearly Custom
  High: Low: Average:
Temperature: 87.4 °F 52.7 °F 67.9 °F
Dew Point: 50.1 °F 37.8 °F 43.9 °F
Humidity: 74% 22% 45%
Wind Speed: 5.8mph 0.0mph 1.4mph
Wind Gust: -999.0mph - -
Wind- - WNW
Pressure: 30.36 in 30.30 in -
Precipitation: 0.00 in    
Historical Graphs
 
 
Tabular Data for July 5, 2017
Time Temperature Dew Point Pressure Wind Wind Speed Wind Gust Humidity Rainfall Rate (Hourly)
00:09 59.0 °F 39.3 °F 30.31 in Calm   -999.0 mph 48% 0 in
00:24 58.5 °F 40.9 °F 30.31 in Calm   -999.0 mph 52% 0 in
00:39 58.1 °F 38.5 °F 30.31 in Calm   -999.0 mph 48% 0 in
00:54 57.9 °F 37.8 °F 30.31 in Calm   -999.0 mph 47% 0 in
01:09 57.2 °F 40.7 °F 30.31 in Calm   -999.0 mph 54% 0 in
01:25 57.0 °F 40.5 °F 30.30 in Calm   -999.0 mph 54% 0 in
01:40 56.7 °F 39.3 °F 30.30 in Calm   -999.0 mph 52% 0 in
01:55 56.3 °F 39.4 °F 30.30 in Calm   -999.0 mph 53% 0 in
02:10 55.9 °F 39.5 °F 30.30 in Calm   -999.0 mph 54% 0 in
02:25 55.6 °F 38.7 °F 30.30 in Calm   -999.0 mph 53% 0 in
02:41 55.4 °F 40.0 °F 30.30 in Calm   -999.0 mph 56% 0 in
02:56 55.0 °F 39.1 °F 30.30 in Calm   -999.0 mph 55% 0 in
03:11 54.9 °F 39.5 °F 30.30 in Calm   -999.0 mph 56% 0 in
03:26 54.7 °F 39.3 °F 30.30 in Calm   -999.0 mph 56% 0 in
03:41 54.5 °F 40.0 °F 30.30 in Calm   -999.0 mph 58% 0 in
03:57 54.0 °F 40.4 °F 30.30 in Calm   -999.0 mph 60% 0 in
04:12 54.1 °F 38.3 °F 30.30 in South 1.7 mph -999.0 mph 55% 0 in
04:27 53.8 °F 39.4 °F 30.30 in Calm   -999.0 mph 58% 0 in
04:42 53.6 °F 39.6 °F 30.30 in Calm   -999.0 mph 59% 0 in
04:57 53.4 °F 39.9 °F 30.30 in Calm   -999.0 mph 60% 0 in
05:13 53.4 °F 40.3 °F 30.30 in Calm   -999.0 mph 61% 0 in
05:28 52.9 °F 39.0 °F 30.30 in Calm   -999.0 mph 59% 0 in
05:43 53.1 °F 40.0 °F 30.31 in Calm   -999.0 mph 61% 0 in
05:58 52.9 °F 42.2 °F 30.31 in Calm   -999.0 mph 67% 0 in
06:14 52.7 °F 42.8 °F 30.31 in Calm   -999.0 mph 69% 0 in
06:29 52.7 °F 43.2 °F 30.32 in Calm   -999.0 mph 70% 0 in
06:44 52.9 °F 43.8 °F 30.32 in Calm   -999.0 mph 71% 0 in
06:59 53.1 °F 43.9 °F 30.32 in Calm   -999.0 mph 71% 0 in
07:14 54.1 °F 45.3 °F 30.32 in Calm   -999.0 mph 72% 0 in
07:30 55.0 °F 45.8 °F 30.33 in Calm   -999.0 mph 71% 0 in
07:45 55.8 °F 46.2 °F 30.33 in Calm   -999.0 mph 70% 0 in
08:00 56.8 °F 48.6 °F 30.34 in Calm   -999.0 mph 74% 0 in
08:15 57.7 °F 48.0 °F 30.34 in Calm   -999.0 mph 70% 0 in
08:30 59.2 °F 47.0 °F 30.34 in Calm   -999.0 mph 64% 0 in
08:46 61.7 °F 48.1 °F 30.34 in Calm   -999.0 mph 61% 0 in
09:01 64.2 °F 47.2 °F 30.34 in Calm   -999.0 mph 54% 0 in
09:16 66.6 °F 48.4 °F 30.34 in NW 2.2 mph -999.0 mph 52% 0 in
09:31 68.4 °F 50.1 °F 30.34 in Calm   -999.0 mph 52% 0 in
09:46 72.7 °F 47.0 °F 30.34 in NW 2.7 mph -999.0 mph 40% 0 in
10:02 75.4 °F 46.6 °F 30.34 in NW 3.7 mph -999.0 mph 36% 0 in
10:17 77.0 °F 44.9 °F 30.34 in NW 3.2 mph -999.0 mph 32% 0 in
10:32 78.3 °F 45.2 °F 30.34 in NW 3.2 mph -999.0 mph 31% 0 in
10:47 79.3 °F 45.2 °F 30.34 in NNW 4.7 mph -999.0 mph 30% 0 in
11:02 80.8 °F 46.5 °F 30.34 in NNW 4.7 mph -999.0 mph 30% 0 in
11:18 81.1 °F 45.8 °F 30.34 in ESE 3.2 mph -999.0 mph 29% 0 in
11:33 79.2 °F 45.1 °F 30.35 in NNW 2.7 mph -999.0 mph 30% 0 in
11:48 79.9 °F 45.7 °F 30.35 in Calm   -999.0 mph 30% 0 in
12:04 79.5 °F 42.6 °F 30.35 in East 1.7 mph -999.0 mph 27% 0 in
12:19 80.4 °F 47.0 °F 30.35 in North 4.2 mph -999.0 mph 31% 0 in
12:34 80.4 °F 45.2 °F 30.35 in West 3.2 mph -999.0 mph 29% 0 in
12:49 78.6 °F 45.4 °F 30.35 in NW 4.7 mph -999.0 mph 31% 0 in
13:04 80.8 °F 48.2 °F 30.35 in NW 4.7 mph -999.0 mph 32% 0 in
13:20 83.8 °F 49.1 °F 30.34 in NW 5.8 mph -999.0 mph 30% 0 in
13:35 83.7 °F 47.1 °F 30.34 in NNW 3.7 mph -999.0 mph 28% 0 in
13:50 81.0 °F 46.7 °F 30.34 in WNW 3.7 mph -999.0 mph 30% 0 in
14:05 78.6 °F 44.6 °F 30.34 in North 3.7 mph -999.0 mph 30% 0 in
14:21 77.4 °F 44.4 °F 30.34 in NW 2.7 mph -999.0 mph 31% 0 in
14:37 77.5 °F 43.6 °F 30.34 in WNW 1.1 mph -999.0 mph 30% 0 in
14:52 76.6 °F 46.1 °F 30.35 in NW 4.2 mph -999.0 mph 34% 0 in
15:07 77.4 °F 46.1 °F 30.34 in NW 3.2 mph -999.0 mph 33% 0 in
15:23 77.0 °F 47.3 °F 30.34 in NNW 1.7 mph -999.0 mph 35% 0 in
15:38 77.5 °F 46.9 °F 30.34 in WSW 3.7 mph -999.0 mph 34% 0 in
15:54 79.0 °F 45.8 °F 30.34 in WNW 2.7 mph -999.0 mph 31% 0 in
16:09 82.4 °F 47.9 °F 30.33 in NNW 4.2 mph -999.0 mph 30% 0 in
16:24 83.3 °F 43.8 °F 30.33 in NW 4.2 mph -999.0 mph 25% 0 in
16:40 83.5 °F 44.0 °F 30.32 in NNW 4.7 mph -999.0 mph 25% 0 in
16:55 85.5 °F 44.6 °F 30.32 in NNW 3.7 mph -999.0 mph 24% 0 in
17:10 87.3 °F 43.8 °F 30.32 in NNE 4.2 mph -999.0 mph 22% 0 in
17:25 87.4 °F 46.2 °F 30.32 in NNW 3.7 mph -999.0 mph 24% 0 in
17:41 86.9 °F 47.9 °F 30.32 in WNW 4.2 mph -999.0 mph 26% 0 in
17:56 85.1 °F 47.4 °F 30.32 in NW 3.7 mph -999.0 mph 27% 0 in
18:11 84.7 °F 46.0 °F 30.32 in WNW 3.7 mph -999.0 mph 26% 0 in
18:26 84.0 °F 46.4 °F 30.32 in NNW 3.2 mph -999.0 mph 27% 0 in
18:42 82.9 °F 45.5 °F 30.32 in NNW 3.2 mph -999.0 mph 27% 0 in
18:57 81.3 °F 45.1 °F 30.32 in North 1.1 mph -999.0 mph 28% 0 in
19:12 80.4 °F 46.1 °F 30.32 in WNW 1.7 mph -999.0 mph 30% 0 in
19:27 77.2 °F 45.9 °F 30.32 in Calm   -999.0 mph 33% 0 in
19:42 74.3 °F 44.9 °F 30.33 in Calm   -999.0 mph 35% 0 in
19:58 71.6 °F 44.0 °F 30.33 in Calm   -999.0 mph 37% 0 in
20:13 70.5 °F 43.7 °F 30.34 in Calm   -999.0 mph 38% 0 in
20:28 68.9 °F 43.6 °F 30.34 in Calm   -999.0 mph 40% 0 in
20:43 68.2 °F 44.9 °F 30.34 in Calm   -999.0 mph 43% 0 in
20:58 66.7 °F 44.1 °F 30.34 in Calm   -999.0 mph 44% 0 in
21:14 65.5 °F 43.6 °F 30.34 in Calm   -999.0 mph 45% 0 in
21:29 64.0 °F 44.5 °F 30.34 in Calm   -999.0 mph 49% 0 in
21:45 63.1 °F 43.6 °F 30.35 in Calm   -999.0 mph 49% 0 in
22:00 62.4 °F 43.0 °F 30.35 in Calm   -999.0 mph 49% 0 in
22:15 61.7 °F 43.4 °F 30.35 in Calm   -999.0 mph 51% 0 in
22:30 61.2 °F 42.9 °F 30.35 in Calm   -999.0 mph 51% 0 in
22:45 60.4 °F 42.7 °F 30.35 in Calm   -999.0 mph 52% 0 in
23:01 59.9 °F 42.7 °F 30.35 in Calm   -999.0 mph 53% 0 in
23:16 59.4 °F 42.7 °F 30.36 in Calm   -999.0 mph 54% 0 in
23:31 59.2 °F 42.6 °F 30.35 in Calm   -999.0 mph 54% 0 in
23:46 58.6 °F 43.0 °F 30.35 in Calm   -999.0 mph 56% 0 in
Big Bear CA Weather